Time;durP1;ratioP1;P1;durP2;ratioP2;P2;SDS_P1;SDS_P2;PMS_P1;PMS_P2;Temp;Humidity;BMP_temperature;BMP_pressure;BME280_temperature;BME280_humidity;BME280_pressure;Samples;Min_cycle;Max_cycle;Signal;HPM_P1;HPM_P2
2022/06/13 00:00:19;;;;;;;;;3.33;2.00;;;;;21.03;39.30;102030.66;5054023;28;46117;-87
2022/06/13 00:02:45;;;;;;;;;2.00;0.67;;;;;20.82;39.89;101996.88;5051455;28;48574;-86
2022/06/13 00:05:12;;;;;;;;;1.00;1.00;;;;;20.99;39.62;102030.97;5058178;28;45466;-86
2022/06/13 00:07:37;;;;;;;;;1.00;0.33;;;;;20.80;40.03;102009.66;5051661;28;45473;-88
2022/06/13 00:10:03;;;;;;;;;1.00;1.00;;;;;20.92;40.12;102041.34;5060380;28;47235;-86
2022/06/13 00:12:28;;;;;;;;;1.00;1.00;;;;;20.89;40.18;102043.44;5039615;28;45519;-87
2022/06/13 00:14:54;;;;;;;;;1.00;1.00;;;;;20.79;40.39;102026.88;5036008;28;45862;-87
2022/06/13 00:17:19;;;;;;;;;3.00;1.67;;;;;20.75;39.95;102023.53;5056644;28;45404;-88
2022/06/13 00:19:44;;;;;;;;;3.33;2.00;;;;;20.69;40.08;102013.06;5058664;28;45487;-86
2022/06/13 00:22:10;;;;;;;;;1.33;0.67;;;;;20.65;40.64;102009.72;5058046;28;45606;-87
2022/06/13 00:24:36;;;;;;;;;1.00;1.00;;;;;20.63;40.49;102008.09;5056518;28;45498;-87
2022/06/13 00:27:02;;;;;;;;;1.00;1.00;;;;;20.75;40.44;102034.34;5044496;28;45547;-87
2022/06/13 00:29:28;;;;;;;;;1.00;1.00;;;;;20.62;40.62;102020.72;5056274;28;47851;-87
2022/06/13 00:31:56;;;;;;;;;1.00;1.00;;;;;20.68;40.67;102043.88;5056888;28;45369;-87
2022/06/13 00:34:21;;;;;;;;;1.00;1.00;;;;;20.62;41.48;102034.28;5059285;28;45521;-87
2022/06/13 00:36:47;;;;;;;;;1.00;1.00;;;;;20.62;40.97;102030.72;5060539;28;45429;-87
2022/06/13 00:39:12;;;;;;;;;1.00;1.00;;;;;20.54;41.56;102014.06;5058832;28;45359;-87
2022/06/13 00:41:40;;;;;;;;;1.00;1.00;;;;;20.55;41.19;102022.06;5058985;28;45521;-87
2022/06/13 00:44:19;;;;;;;;;1.00;1.00;;;;;20.55;41.21;102027.50;5057462;28;45501;-87
2022/06/13 00:46:45;;;;;;;;;1.00;1.00;;;;;20.35;41.45;101988.19;5057655;28;45502;-88
2022/06/13 00:49:22;;;;;;;;;0.00;0.00;;;;;20.33;41.40;101992.81;5052188;28;47626;-88
2022/06/13 00:51:53;;;;;;;;;2.00;1.00;;;;;20.40;41.84;102007.69;5059732;28;45390;-87
2022/06/13 00:54:21;;;;;;;;;1.67;1.00;;;;;20.42;41.54;102010.31;5053718;28;45548;-87
2022/06/13 00:56:49;;;;;;;;;3.00;2.00;;;;;20.44;41.48;102017.38;5051935;28;45293;-87
2022/06/13 00:59:18;;;;;;;;;1.00;1.00;;;;;20.41;41.92;102009.44;5056673;28;46154;-87
2022/06/13 01:01:44;;;;;;;;;5.00;1.00;;;;;20.31;41.85;101993.91;5059390;28;45443;-87
2022/06/13 01:04:10;;;;;;;;;1.00;1.00;;;;;20.19;42.01;101971.19;5058351;28;45324;-88
2022/06/13 01:06:41;;;;;;;;;0.00;0.00;;;;;20.26;42.11;101993.34;5059489;28;45598;-88
2022/06/13 01:09:08;;;;;;;;;3.00;2.00;;;;;20.30;42.30;102006.56;5050842;28;47495;-87
2022/06/13 01:11:38;;;;;;;;;1.00;1.00;;;;;20.27;42.34;102008.59;5056553;28;45488;-88
2022/06/13 01:14:16;;;;;;;;;1.00;1.00;;;;;20.23;42.96;102005.22;5053088;28;45470;-87
2022/06/13 01:17:06;;;;;;;;;2.00;1.00;;;;;20.21;42.57;101996.34;5054056;28;46856;-87
2022/06/13 01:19:46;;;;;;;;;1.67;1.33;;;;;20.18;42.92;102002.81;5054881;28;45506;-86
2022/06/13 01:22:42;;;;;;;;;3.00;1.33;;;;;20.16;43.24;102002.03;5065972;28;45469;-87
2022/06/13 01:25:16;;;;;;;;;2.00;2.00;;;;;20.15;43.03;101991.31;5039400;28;45534;-87
2022/06/13 01:27:47;;;;;;;;;2.00;2.00;;;;;20.16;43.39;102001.19;5059692;28;45573;-87
2022/06/13 01:30:51;;;;;;;;;3.33;2.00;;;;;20.12;43.28;101988.81;5043975;28;47285;-87
2022/06/13 01:33:51;;;;;;;;;2.67;2.00;;;;;20.09;43.09;101991.69;5059520;28;45549;-88
2022/06/13 01:36:44;;;;;;;;;3.67;2.00;;;;;20.06;43.70;101986.47;5059544;28;45520;-88
2022/06/13 01:39:18;;;;;;;;;2.00;2.00;;;;;20.03;43.85;101987.53;5064328;28;45705;-88
2022/06/13 01:41:57;;;;;;;;;3.00;3.00;;;;;19.91;43.85;101975.66;5051881;28;45793;-87
2022/06/13 01:44:35;;;;;;;;;3.67;2.00;;;;;19.98;43.90;101990.53;5056969;28;45403;-87
2022/06/13 01:47:10;;;;;;;;;2.67;2.00;;;;;19.84;44.10;101981.56;5053956;28;45454;-87
2022/06/13 01:49:58;;;;;;;;;3.00;3.00;;;;;19.81;44.40;101985.34;5053069;28;45409;-88
2022/06/13 01:52:53;;;;;;;;;3.67;3.00;;;;;19.89;44.27;101992.97;5058144;28;46137;-87
2022/06/13 01:55:18;;;;;;;;;1.00;1.00;;;;;19.87;45.06;101998.47;5049150;28;45533;-86
2022/06/13 01:57:51;;;;;;;;;2.00;2.00;;;;;19.74;45.20;101986.69;5055895;28;45776;-87
2022/06/13 02:00:25;;;;;;;;;3.00;3.00;;;;;19.82;45.23;102001.47;5055814;28;45698;-87
2022/06/13 02:03:17;;;;;;;;;2.00;2.00;;;;;19.73;45.20;101984.94;5048678;28;46120;-87
2022/06/13 02:05:52;;;;;;;;;2.67;2.00;;;;;19.79;45.10;101998.97;5055035;28;45502;-88
2022/06/13 02:08:25;;;;;;;;;2.00;2.00;;;;;19.55;45.29;101962.56;5053539;28;45533;-88
2022/06/13 02:11:01;;;;;;;;;2.00;2.00;;;;;19.55;45.84;101971.56;5056189;28;45429;-88
2022/06/13 02:13:37;;;;;;;;;3.00;3.00;;;;;19.66;45.59;101995.22;5057645;28;46137;-88
2022/06/13 02:16:17;;;;;;;;;4.00;2.00;;;;;19.43;45.68;101952.53;5057540;28;45418;-87
2022/06/13 02:18:51;;;;;;;;;2.00;2.00;;;;;19.68;45.55;102004.16;5039799;28;45525;-88
2022/06/13 02:21:23;;;;;;;;;5.00;2.00;;;;;19.41;45.56;101958.03;5056868;28;45595;-87
2022/06/13 02:23:55;;;;;;;;;1.67;1.67;;;;;19.48;46.07;101963.91;5043690;28;46259;-87
2022/06/13 02:26:28;;;;;;;;;3.00;3.00;;;;;19.67;46.01;101993.44;5055356;28;46210;-88
2022/06/13 02:29:00;;;;;;;;;2.67;2.67;;;;;19.64;45.89;101996.28;5055223;28;45570;-88
2022/06/13 02:31:39;;;;;;;;;4.33;2.00;;;;;19.47;46.08;101971.16;5057012;28;45491;-88
2022/06/13 02:34:13;;;;;;;;;3.00;3.00;;;;;19.55;46.55;101989.63;5057736;28;45919;-88
2022/06/13 02:37:08;;;;;;;;;3.33;2.67;;;;;19.55;46.11;101992.31;5054787;28;45529;-87
2022/06/13 02:39:46;;;;;;;;;5.00;2.67;;;;;19.40;46.43;101969.81;5057915;28;45531;-88
2022/06/13 02:42:17;;;;;;;;;1.00;1.00;;;;;19.51;46.20;101998.91;5057652;28;45696;-87
2022/06/13 02:45:01;;;;;;;;;2.00;2.00;;;;;19.49;45.90;101992.72;5054991;28;46662;-88
2022/06/13 02:47:50;;;;;;;;;2.00;1.00;;;;;19.32;46.23;101966.72;5054932;28;45531;-88
2022/06/13 02:50:17;;;;;;;;;3.33;2.00;;;;;19.43;46.50;101999.34;5046466;28;45562;-89
2022/06/13 02:52:52;;;;;;;;;4.00;2.67;;;;;19.40;46.18;101992.28;5055618;28;45783;-87
2022/06/13 02:55:18;;;;;;;;;5.00;3.67;;;;;19.12;46.08;101949.84;5057304;28;47351;-88
2022/06/13 02:58:02;;;;;;;;;3.00;1.67;;;;;19.33;46.22;101993.63;5057494;28;45403;-87
2022/06/13 03:00:50;;;;;;;;;2.00;1.00;;;;;19.10;46.31;101961.72;5057911;28;45408;-87
2022/06/13 03:03:30;;;;;;;;;4.00;4.00;;;;;19.25;46.47;102004.06;5057937;28;45490;-88
2022/06/13 03:06:04;;;;;;;;;5.00;2.00;;;;;19.19;46.65;102004.41;5042604;28;45693;-87
2022/06/13 03:08:45;;;;;;;;;2.67;2.67;;;;;19.18;46.77;102008.09;5054587;28;45495;-87
2022/06/13 03:11:32;;;;;;;;;2.67;1.00;;;;;19.12;46.81;102006.59;5050576;28;45526;-88
2022/06/13 03:14:19;;;;;;;;;4.67;3.33;;;;;19.11;47.14;102012.13;5054733;28;45690;-88
2022/06/13 03:16:55;;;;;;;;;4.67;4.67;;;;;19.09;46.82;102011.34;5051732;28;45489;-88
2022/06/13 03:19:33;;;;;;;;;3.00;2.00;;;;;19.06;47.56;102020.50;5054912;28;45541;-88
2022/06/13 03:22:08;;;;;;;;;3.33;3.33;;;;;19.04;47.41;102011.63;5055083;28;45435;-89
2022/06/13 03:24:52;;;;;;;;;3.67;3.67;;;;;19.00;47.31;102018.16;5053401;28;45502;-88
2022/06/13 03:27:33;;;;;;;;;5.00;3.00;;;;;18.86;47.53;102002.75;5039965;28;47375;-87
2022/06/13 03:30:12;;;;;;;;;2.67;2.67;;;;;18.89;47.79;102017.91;5054590;28;45704;-87
2022/06/13 03:35:42;;;;;;;;;0.67;0.67;;;;;18.94;47.76;102026.59;5036458;28;45697;-88
2022/06/13 03:38:13;;;;;;;;;3.33;3.00;;;;;18.85;47.64;102024.47;5032219;28;46952;-88
2022/06/13 03:40:46;;;;;;;;;2.67;1.67;;;;;18.91;48.10;102043.00;5037417;28;45455;-88
2022/06/13 03:43:15;;;;;;;;;6.00;3.00;;;;;18.91;48.03;102040.31;5039532;28;45363;-88
2022/06/13 03:45:48;;;;;;;;;2.33;2.33;;;;;18.84;48.02;102028.13;5041608;28;45499;-88
2022/06/13 03:48:28;;;;;;;;;3.00;3.00;;;;;18.82;48.18;102040.84;5040075;28;46181;-88
2022/06/13 03:51:00;;;;;;;;;1.67;1.00;;;;;18.74;48.29;102020.50;5039276;28;45347;-87
2022/06/13 03:53:34;;;;;;;;;2.33;1.67;;;;;18.81;48.58;102034.56;5036968;28;45437;-88
2022/06/13 03:56:20;;;;;;;;;4.00;3.00;;;;;18.88;48.58;102049.47;5038226;28;45589;-88
2022/06/13 03:59:07;;;;;;;;;6.33;4.00;;;;;18.86;48.12;102042.41;5037967;28;47254;-88
2022/06/13 04:02:01;;;;;;;;;5.00;2.00;;;;;18.84;48.43;102038.91;5039618;28;45434;-87
2022/06/13 04:04:35;;;;;;;;;4.00;2.00;;;;;18.76;48.69;102028.53;5029733;28;45443;-87
2022/06/13 04:07:01;;;;;;;;;2.33;2.33;;;;;18.68;48.45;102014.59;5043891;28;45482;-87
2022/06/13 04:09:58;;;;;;;;;3.67;3.67;;;;;18.64;48.73;102016.59;5037018;28;45583;-87
2022/06/13 04:12:50;;;;;;;;;3.00;1.67;;;;;18.78;48.56;102048.25;5038059;28;45468;-88
2022/06/13 04:15:43;;;;;;;;;3.00;3.00;;;;;18.76;48.33;102044.75;5041979;28;45443;-87
2022/06/13 04:18:49;;;;;;;;;5.00;2.00;;;;;18.74;49.06;102044.81;5042530;28;45763;-87
2022/06/13 04:21:15;;;;;;;;;2.00;2.00;;;;;18.73;49.17;102040.38;5035886;28;45493;-88
2022/06/13 04:24:09;;;;;;;;;3.33;3.33;;;;;18.52;48.99;102007.38;5040017;28;45463;-88
2022/06/13 04:26:50;;;;;;;;;6.00;6.00;;;;;18.59;49.01;102028.63;4933230;28;45528;-88
2022/06/13 04:30:14;;;;;;;;;3.00;3.00;;;;;18.69;49.20;102052.31;4917119;28;45576;-88
2022/06/13 04:33:02;;;;;;;;;2.00;2.00;;;;;18.65;49.17;102047.19;4860565;29;46222;-88
2022/06/13 04:35:30;;;;;;;;;3.00;3.00;;;;;18.69;49.45;102055.03;4860666;29;45702;-87
2022/06/13 04:37:57;;;;;;;;;3.33;3.33;;;;;18.67;49.65;102050.66;4860768;29;45661;-88
2022/06/13 04:40:26;;;;;;;;;3.33;3.00;;;;;18.45;49.53;102018.59;4861367;29;45613;-89
2022/06/13 04:42:54;;;;;;;;;3.00;2.00;;;;;18.63;49.48;102049.94;4860214;29;45566;-88
2022/06/13 04:45:25;;;;;;;;;3.67;3.67;;;;;18.61;49.56;102051.88;4862385;29;45701;-89
2022/06/13 04:47:53;;;;;;;;;2.33;2.33;;;;;18.60;49.96;102055.53;4860719;29;45446;-89
2022/06/13 04:50:29;;;;;;;;;4.33;2.33;;;;;18.58;50.14;102062.84;4860851;29;45544;-88
2022/06/13 04:52:59;;;;;;;;;3.00;3.00;;;;;18.44;50.29;102039.31;4860446;29;45588;-89
2022/06/13 04:55:33;;;;;;;;;3.00;3.00;;;;;18.60;50.00;102062.78;4859672;29;45422;-88
2022/06/13 04:57:58;;;;;;;;;5.00;3.00;;;;;18.60;50.40;102068.19;4860694;29;45534;-88
2022/06/13 05:00:24;;;;;;;;;3.00;3.00;;;;;18.47;50.66;102040.97;4860110;29;45557;-88
2022/06/13 05:02:54;;;;;;;;;4.33;3.33;;;;;18.61;50.76;102069.91;4907739;28;46306;-88
2022/06/13 05:05:33;;;;;;;;;2.00;2.00;;;;;18.30;50.51;102020.34;5039027;28;45579;-83
2022/06/13 05:07:58;;;;;;;;;5.67;4.33;;;;;18.59;50.75;102063.72;5056754;28;45545;-85
2022/06/13 05:10:31;;;;;;;;;4.67;2.67;;;;;18.59;50.68;102069.13;5057579;28;45643;-89
2022/06/13 05:12:57;;;;;;;;;5.67;3.00;;;;;18.61;50.68;102069.91;5056087;28;46935;-89
2022/06/13 05:15:28;;;;;;;;;5.00;5.00;;;;;18.53;50.91;102059.53;5057098;28;45417;-88
2022/06/13 05:17:56;;;;;;;;;4.00;2.33;;;;;18.61;50.83;102068.06;5055707;28;47419;-89
2022/06/13 05:20:40;;;;;;;;;4.67;3.67;;;;;18.62;50.84;102067.13;5057248;28;45463;-89
2022/06/13 05:23:24;;;;;;;;;3.00;3.00;;;;;18.64;51.03;102075.16;5050785;28;46586;-93
2022/06/13 05:25:53;;;;;;;;;4.00;3.67;;;;;18.66;51.00;102075.91;5054979;28;45620;-90
2022/06/13 05:28:22;;;;;;;;;5.00;4.00;;;;;18.67;51.27;102072.28;5041439;28;45420;-85
2022/06/13 05:30:53;;;;;;;;;3.67;2.67;;;;;18.60;51.31;102063.63;5055265;28;45490;-84
2022/06/13 05:33:22;;;;;;;;;3.33;3.33;;;;;18.49;51.21;102050.72;5056634;28;46125;-85
2022/06/13 05:35:52;;;;;;;;;6.00;4.00;;;;;18.70;50.99;102085.59;5042799;28;45329;-83
2022/06/13 05:38:23;;;;;;;;;4.67;3.33;;;;;18.75;51.53;102080.78;5060788;28;45554;-83
2022/06/13 05:40:49;;;;;;;;;5.33;3.33;;;;;18.76;51.49;102082.56;5041028;28;45475;-87
2022/06/13 05:43:16;;;;;;;;;2.00;2.00;;;;;18.75;51.28;102078.09;5055970;28;46296;-85
2022/06/13 05:45:42;;;;;;;;;3.00;3.00;;;;;18.76;51.49;102074.44;5058045;28;45491;-85
2022/06/13 05:48:14;;;;;;;;;14.00;13.00;;;;;18.89;51.74;102089.00;5053389;28;45479;-86
2022/06/13 05:50:40;;;;;;;;;4.00;3.67;;;;;18.90;51.43;102089.91;5057978;28;45603;-87
2022/06/13 05:53:06;;;;;;;;;4.33;3.67;;;;;18.99;51.60;102094.78;5054034;28;46317;-85
2022/06/13 05:55:32;;;;;;;;;11.00;7.67;;;;;19.03;51.45;102099.03;5056503;28;46155;-86
2022/06/13 05:57:57;;;;;;;;;3.33;2.67;;;;;19.06;51.33;102096.19;5059363;28;45542;-87
2022/06/13 06:00:27;;;;;;;;;5.00;5.00;;;;;18.97;52.10;102069.69;5039121;28;45607;-89
2022/06/13 06:02:53;;;;;;;;;2.00;2.00;;;;;19.16;51.34;102091.97;5058538;28;45508;-88
2022/06/13 06:05:18;;;;;;;;;5.67;3.33;;;;;19.15;50.90;102090.25;5053516;28;45452;-84
2022/06/13 06:07:44;;;;;;;;;6.00;4.00;;;;;19.07;51.28;102070.88;5055810;28;45474;-86
2022/06/13 06:10:28;;;;;;;;;3.67;2.00;;;;;19.11;51.28;102067.03;5058017;28;45585;-87
2022/06/13 06:12:53;;;;;;;;;6.00;4.33;;;;;19.37;51.57;102103.34;5057246;28;46461;-88
2022/06/13 06:15:18;;;;;;;;;8.67;6.00;;;;;19.30;51.39;102076.78;5062578;28;45449;-88
2022/06/13 06:17:44;;;;;;;;;4.00;4.00;;;;;19.40;51.12;102088.78;5059845;28;45933;-85
2022/06/13 06:20:16;;;;;;;;;3.33;3.33;;;;;19.49;51.04;102107.16;5055508;28;45504;-84
2022/06/13 06:22:41;;;;;;;;;4.00;4.00;;;;;19.28;51.11;102060.63;5057524;28;46649;-85
2022/06/13 06:25:08;;;;;;;;;4.00;3.00;;;;;19.59;50.55;102118.28;5055737;28;45511;-85
2022/06/13 06:27:33;;;;;;;;;4.00;4.00;;;;;19.63;50.63;102108.19;5055151;28;45633;-83
2022/06/13 06:29:58;;;;;;;;;5.00;5.00;;;;;19.37;50.63;102061.94;5059387;28;45429;-83
2022/06/13 06:32:23;;;;;;;;;6.67;4.33;;;;;19.71;50.70;102112.16;5054362;28;49526;-83
2022/06/13 06:34:49;;;;;;;;;8.33;5.33;;;;;19.65;50.78;102096.28;5057273;28;45791;-82
2022/06/13 06:37:14;;;;;;;;;6.33;3.33;;;;;19.80;50.76;102108.03;5059229;28;45435;-82
2022/06/13 06:39:39;;;;;;;;;5.33;4.33;;;;;19.85;50.28;102113.19;5059024;28;45518;-82
2022/06/13 06:42:05;;;;;;;;;3.00;2.33;;;;;19.80;50.68;102103.50;5056686;28;47162;-83
2022/06/13 06:44:30;;;;;;;;;5.00;4.00;;;;;19.93;50.48;102114.47;5057587;28;45518;-82
2022/06/13 06:46:55;;;;;;;;;4.00;2.33;;;;;19.86;50.79;102096.00;5056132;28;45484;-82
2022/06/13 06:49:21;;;;;;;;;2.00;2.00;;;;;20.04;50.54;102127.31;5060243;28;45578;-83
2022/06/13 06:51:47;;;;;;;;;5.00;4.33;;;;;19.94;50.27;102109.91;5059115;28;46011;-82
2022/06/13 06:59:55;;;;;;;;;4.33;4.33;;;;;20.19;50.26;102120.09;5058814;28;46051;-83
2022/06/13 07:02:27;;;;;;;;;4.67;3.67;;;;;20.28;49.73;102127.66;5053852;28;46258;-82
2022/06/13 07:04:58;;;;;;;;;6.33;4.00;;;;;20.33;49.35;102125.50;5055683;28;45564;-84
2022/06/13 07:07:23;;;;;;;;;3.33;3.33;;;;;20.10;49.21;102083.63;5037178;28;45274;-84
2022/06/13 07:09:49;;;;;;;;;8.33;6.33;;;;;20.45;49.43;102132.00;5057617;28;45615;-84
2022/06/13 07:12:14;;;;;;;;;6.67;3.00;;;;;20.38;48.38;102104.44;5058020;28;46010;-84
2022/06/13 07:14:40;;;;;;;;;4.00;2.00;;;;;20.42;48.53;102107.81;5053175;28;45550;-83
2022/06/13 07:17:08;;;;;;;;;6.00;4.00;;;;;20.57;48.46;102124.97;5054334;28;45514;-81
2022/06/13 07:19:34;;;;;;;;;5.00;4.33;;;;;20.59;48.08;102117.59;5054705;28;45601;-83
2022/06/13 07:22:01;;;;;;;;;6.67;6.67;;;;;20.64;47.68;102108.19;5050940;28;46340;-83
2022/06/13 07:24:27;;;;;;;;;4.33;4.33;;;;;20.76;47.31;102124.63;5053945;28;45551;-83
2022/06/13 07:26:53;;;;;;;;;5.67;4.00;;;;;20.84;47.98;102123.19;5051723;28;45592;-83
2022/06/13 07:29:19;;;;;;;;;4.67;2.33;;;;;20.84;47.45;102106.94;5051972;28;45699;-82
2022/06/13 07:32:12;;;;;;;;;3.67;3.00;;;;;21.02;46.78;102131.94;5058363;28;46991;-83
2022/06/13 07:34:39;;;;;;;;;1.33;1.33;;;;;20.94;45.69;102101.75;5056451;28;45178;-86
2022/06/13 07:37:06;;;;;;;;;3.67;3.00;;;;;21.15;45.73;102132.00;5041931;28;45659;-84
2022/06/13 07:39:32;;;;;;;;;2.33;2.33;;;;;21.16;45.46;102120.19;5055599;28;45531;-85
2022/06/13 07:41:57;;;;;;;;;4.00;1.00;;;;;21.21;45.45;102120.75;5038949;28;47885;-83
2022/06/13 07:44:26;;;;;;;;;4.00;4.00;;;;;21.25;45.63;102116.84;5055987;28;45558;-84
2022/06/13 07:46:52;;;;;;;;;3.33;3.33;;;;;21.35;44.48;102127.09;5051077;28;46541;-85
2022/06/13 07:49:19;;;;;;;;;3.67;3.67;;;;;21.34;45.15;102123.50;5055089;28;45609;-87
2022/06/13 07:51:45;;;;;;;;;5.67;3.00;;;;;21.45;45.21;102133.69;5056825;28;45683;-84
2022/06/13 07:54:11;;;;;;;;;5.00;3.00;;;;;21.30;45.23;102089.41;5059231;28;45496;-86
2022/06/13 07:56:38;;;;;;;;;3.00;3.00;;;;;21.32;44.49;102086.63;5058259;28;45464;-83
2022/06/13 07:59:05;;;;;;;;;8.00;4.00;;;;;21.54;44.46;102116.78;5054889;28;45500;-83
2022/06/13 08:01:31;;;;;;;;;4.00;2.33;;;;;21.69;44.25;102133.84;5059519;28;45413;-83
2022/06/13 08:03:57;;;;;;;;;2.00;2.00;;;;;21.75;43.92;102141.56;5053857;28;45583;-83
2022/06/13 08:06:24;;;;;;;;;3.00;3.00;;;;;21.82;43.35;102133.84;5060579;28;45527;-84
2022/06/13 08:08:50;;;;;;;;;5.33;3.67;;;;;21.80;42.86;102130.41;5059312;28;45455;-84
2022/06/13 08:11:18;;;;;;;;;2.33;1.67;;;;;21.87;41.75;102134.44;5055456;28;45496;-84
2022/06/13 08:13:44;;;;;;;;;2.33;1.67;;;;;21.89;41.50;102121.59;5057556;28;45345;-84
2022/06/13 08:16:10;;;;;;;;;2.00;2.00;;;;;21.91;41.00;102122.34;5056193;28;45940;-85
2022/06/13 08:18:36;;;;;;;;;2.67;2.00;;;;;21.79;40.49;102098.78;5049958;28;46410;-83
2022/06/13 08:21:02;;;;;;;;;1.33;1.33;;;;;21.99;41.23;102116.41;5062654;28;45465;-84
2022/06/13 08:23:28;;;;;;;;;2.00;2.00;;;;;22.13;41.35;102113.59;5057918;28;45605;-83
2022/06/13 08:25:53;;;;;;;;;1.67;1.67;;;;;22.35;40.61;102140.13;5054017;28;45381;-85
2022/06/13 08:28:19;;;;;;;;;43.00;34.67;;;;;22.40;40.54;102112.63;5055989;28;45734;-84
2022/06/13 08:31:01;;;;;;;;;0.00;0.00;;;;;23.02;38.94;102131.66;5061726;28;45483;-84
2022/06/13 08:33:28;;;;;;;;;3.33;3.33;;;;;23.69;37.41;102139.25;5057363;28;45941;-87
2022/06/13 08:35:54;;;;;;;;;3.00;2.00;;;;;23.82;37.24;102122.88;5061834;28;45380;-87
2022/06/13 08:38:20;;;;;;;;;3.00;3.00;;;;;24.23;36.04;102127.81;5057894;28;45475;-86
2022/06/13 08:41:07;;;;;;;;;3.00;3.00;;;;;24.48;35.46;102135.88;5041507;28;46354;-94
2022/06/13 08:44:12;;;;;;;;;1.67;1.00;;;;;24.71;35.02;102136.75;5060521;28;45482;-88
2022/06/13 08:46:51;;;;;;;;;2.00;2.00;;;;;24.93;34.58;102127.66;5060785;28;45460;-87
2022/06/13 08:49:34;;;;;;;;;3.33;2.00;;;;;25.19;34.36;102123.69;5059701;28;45686;-88
2022/06/13 08:52:30;;;;;;;;;58.75;46.25;;;;;25.29;34.37;102123.75;5056185;28;47201;-85
2022/06/13 08:55:06;;;;;;;;;3.67;2.00;;;;;25.16;35.23;102103.91;5060417;28;45511;-92
2022/06/13 08:57:35;;;;;;;;;5.00;2.00;;;;;25.29;34.79;102115.56;5057915;28;45562;-92
2022/06/13 09:00:10;;;;;;;;;4.33;3.00;;;;;25.46;37.56;102108.66;5068494;28;45478;-93
2022/06/13 09:02:47;;;;;;;;;4.00;2.00;;;;;25.84;35.03;102108.09;5070468;28;47091;-96
2022/06/13 09:05:21;;;;;;;;;1.00;1.00;;;;;26.41;33.84;102119.53;5062187;28;45508;-94
2022/06/13 09:07:53;;;;;;;;;3.00;2.00;;;;;26.73;33.52;102107.56;5067142;28;45521;-93
2022/06/13 09:10:37;;;;;;;;;3.00;2.00;;;;;27.30;33.59;102103.25;5062628;28;45391;-91
2022/06/13 09:13:19;;;;;;;;;4.00;4.00;;;;;27.87;34.47;102108.84;5066033;28;49777;-91
2022/06/13 09:15:51;;;;;;;;;3.00;3.00;;;;;28.45;34.37;102117.88;5064530;28;45415;-90
2022/06/13 09:18:29;;;;;;;;;3.33;2.00;;;;;28.90;31.57;102126.22;5060731;28;45549;-92
2022/06/13 09:21:06;;;;;;;;;3.33;3.00;;;;;29.35;31.54;102122.59;5049771;28;45510;-91
2022/06/13 09:23:47;;;;;;;;;1.67;0.00;;;;;29.59;31.61;102090.88;5058509;28;46359;-91
2022/06/13 09:26:37;;;;;;;;;1.00;1.00;;;;;29.69;29.44;102119.19;5055332;28;45526;-91
2022/06/13 09:29:30;;;;;;;;;2.00;2.00;;;;;29.55;29.98;102126.06;5060067;28;45526;-89
2022/06/13 09:32:32;;;;;;;;;4.00;2.00;;;;;29.79;29.80;102117.19;5055447;28;45565;-90
2022/06/13 09:35:19;;;;;;;;;2.67;2.00;;;;;30.04;30.82;102093.47;5041162;28;45622;-90
2022/06/13 09:38:16;;;;;;;;;3.33;1.67;;;;;30.58;30.70;102107.03;5059054;28;45989;-90
2022/06/13 09:41:00;;;;;;;;;2.67;2.67;;;;;31.04;33.15;102115.78;5055436;28;45370;-93
2022/06/13 09:43:42;;;;;;;;;3.33;2.67;;;;;31.40;32.62;102111.88;5062842;28;45478;-90
2022/06/13 09:46:22;;;;;;;;;4.33;4.33;;;;;31.73;32.36;102119.16;5064487;28;46930;-89
2022/06/13 09:49:11;;;;;;;;;1.33;1.33;;;;;32.08;29.74;102111.56;5063809;28;45419;-89
2022/06/13 09:52:00;;;;;;;;;4.33;3.00;;;;;32.51;29.13;102122.34;5067868;28;45609;-90
2022/06/13 09:54:32;;;;;;;;;3.33;3.33;;;;;32.94;30.29;102120.03;5054111;28;45597;-89
2022/06/13 09:57:10;;;;;;;;;3.67;3.00;;;;;33.32;29.85;102109.13;5058125;28;46774;-91
2022/06/13 10:00:28;;;;;;;;;2.67;2.33;;;;;33.67;30.29;102118.72;5057790;28;45518;-94
2022/06/13 10:03:10;;;;;;;;;2.00;2.00;;;;;33.77;28.81;102083.38;5070771;22;45492;-95
2022/06/13 10:05:41;;;;;;;;;1.67;1.67;;;;;34.19;29.06;102106.81;5041614;28;45571;-94
2022/06/13 10:08:27;;;;;;;;;3.00;3.00;;;;;34.29;27.98;102109.28;5051349;28;47289;-96
2022/06/13 10:11:08;;;;;;;;;2.00;2.00;;;;;34.37;28.83;102111.97;5054022;28;45813;-90
2022/06/13 10:13:48;;;;;;;;;1.67;1.67;;;;;34.36;28.70;102106.63;5050083;28;45613;-89
2022/06/13 10:16:38;;;;;;;;;1.33;1.00;;;;;34.16;28.80;102074.00;5056675;28;45404;-88
2022/06/13 10:19:40;;;;;;;;;1.00;1.00;;;;;34.12;28.46;102052.44;5054781;28;45309;-94
2022/06/13 10:22:13;;;;;;;;;4.00;3.00;;;;;34.31;29.06;102073.97;5056065;28;45446;-94
2022/06/13 10:25:00;;;;;;;;;2.00;2.00;;;;;34.40;26.59;102107.97;5051602;28;45585;-91
2022/06/13 10:27:31;;;;;;;;;4.33;2.67;;;;;34.00;28.54;102063.09;5041579;28;45557;-86
2022/06/13 10:30:07;;;;;;;;;2.00;2.00;;;;;34.17;28.17;102110.81;5046720;28;47295;-87
2022/06/13 10:33:00;;;;;;;;;4.67;2.00;;;;;34.10;27.44;102107.09;5056495;28;45560;-86
2022/06/13 10:36:16;;;;;;;;;1.67;1.67;;;;;34.08;27.03;102103.63;5049240;28;45285;-83
2022/06/13 10:39:01;;;;;;;;;2.67;1.00;;;;;33.71;25.79;102067.50;4987557;28;45596;-84
2022/06/13 10:41:30;;;;;;;;;0.33;0.00;;;;;33.73;24.59;102073.72;4988347;28;46771;-95
2022/06/13 10:43:57;;;;;;;;;4.00;3.00;;;;;33.60;26.16;102060.53;4990174;28;45905;-95
2022/06/13 10:46:23;;;;;;;;;1.67;1.67;;;;;33.34;26.10;102048.97;4993500;28;45548;-94
2022/06/13 10:48:57;;;;;;;;;1.67;1.67;;;;;33.47;24.70;102073.25;4984900;28;45884;-90
2022/06/13 10:51:23;;;;;;;;;3.00;1.33;;;;;33.54;24.95;102104.63;4988765;28;46377;-93
2022/06/13 10:54:08;;;;;;;;;1.00;1.00;;;;;33.51;26.16;102100.34;4990700;28;45381;-92
2022/06/13 10:57:01;;;;;;;;;2.00;1.00;;;;;33.30;24.41;102098.25;4973318;28;50454;-92
2022/06/13 10:59:32;;;;;;;;;5.00;5.00;;;;;33.27;24.76;102100.53;4977731;28;45540;-95
2022/06/13 11:02:00;;;;;;;;;3.00;3.00;;;;;33.16;25.67;102099.06;4984045;28;46401;-95
2022/06/13 11:04:29;;;;;;;;;8.33;5.67;;;;;32.98;25.79;102078.06;4993241;28;45409;-94
2022/06/13 11:07:01;;;;;;;;;2.33;0.67;;;;;32.49;26.69;102002.91;4994116;28;45555;-88
2022/06/13 11:09:39;;;;;;;;;4.33;4.00;;;;;33.04;27.02;102095.88;5009075;28;45560;-88
2022/06/13 11:12:28;;;;;;;;;6.00;3.00;;;;;32.87;26.91;102088.66;5051473;28;45482;-87
2022/06/13 11:23:54;;;;;;;;;3.67;3.67;;;;;31.99;28.48;102009.72;5060092;28;45791;-92
2022/06/13 11:29:06;;;;;;;;;2.00;2.00;;;;;32.18;28.00;102086.53;5045248;28;45498;-88
2022/06/13 11:31:33;;;;;;;;;5.33;3.67;;;;;31.81;28.48;102046.59;5053897;28;45863;-96
2022/06/13 11:34:21;;;;;;;;;2.67;2.67;;;;;31.68;29.68;102087.63;5050212;28;46059;-92
2022/06/13 11:37:30;;;;;;;;;2.33;2.33;;;;;31.66;28.96;102087.81;5054812;28;45408;-90
2022/06/13 11:39:55;;;;;;;;;3.00;2.00;;;;;31.33;29.20;102037.34;5038706;28;46138;-95
2022/06/13 11:42:39;;;;;;;;;3.67;3.00;;;;;31.43;29.98;102095.06;5056696;28;46885;-90
2022/06/13 11:45:22;;;;;;;;;3.00;3.00;;;;;30.94;30.55;102017.84;5054154;28;47206;-92
2022/06/13 11:47:50;;;;;;;;;3.67;2.33;;;;;30.44;29.21;101965.44;5051763;28;45490;-89
2022/06/13 11:50:23;;;;;;;;;3.00;3.00;;;;;31.02;30.82;102079.28;5052735;28;48635;-92
2022/06/13 11:55:52;;;;;;;;;3.00;3.00;;;;;30.27;31.03;102025.06;5046084;28;45513;-90
2022/06/13 11:58:28;;;;;;;;;2.00;2.00;;;;;30.54;30.85;102078.09;5035112;28;45979;-90
2022/06/13 12:01:18;;;;;;;;;3.33;3.33;;;;;30.36;31.79;102077.34;5049409;28;50555;-89
2022/06/13 12:04:02;;;;;;;;;5.00;3.00;;;;;30.19;31.67;102070.88;5052422;28;45650;-91
2022/06/13 12:06:35;;;;;;;;;2.00;2.00;;;;;29.71;32.32;102023.66;5049840;28;46917;-87
2022/06/13 12:09:12;;;;;;;;;3.00;3.00;;;;;29.91;32.57;102064.69;5057165;28;45461;-86
2022/06/13 12:11:54;;;;;;;;;3.00;2.00;;;;;29.74;32.45;102061.84;5057569;28;45575;-85
2022/06/13 12:14:19;;;;;;;;;3.00;2.00;;;;;29.57;33.05;102069.06;5049190;28;45581;-85
2022/06/13 12:16:57;;;;;;;;;3.00;3.00;;;;;29.45;32.65;102056.59;5058007;28;50005;-85
2022/06/13 12:19:34;;;;;;;;;4.00;3.00;;;;;29.21;33.39;102044.38;5053946;28;45488;-86
2022/06/13 12:22:09;;;;;;;;;3.00;3.00;;;;;29.20;33.53;102064.63;5055089;28;45575;-85